UPS1231 KRIC-KSDF
Flight info
| Callsign | UPS1231 |
|---|---|
| Flight time | 1h 13m |
| Altitude | 30000 |
| Route | KALLI7 READE AIROW DANCO LAFOX LEDDL1 |
| Aircraft | A306/H-SDE3FGHIRWY/LB1 |
Departure
| Time | 2026-04-27 20:10 |
|---|---|
| Airport | Richmond International Airport (KRIC) |
Arrival
| Time | 2026-04-27 21:23 |
|---|---|
| Airport | Louisville Muhammad Ali International Airport (KSDF) |
| Time | Latitude | Longitude | Altitude | Speed | Heading |
|---|---|---|---|---|---|
| 2026-04-27 19:41 | 37.50068 | -77.33577 | 175 ft | 0 kts | 192° |
| 2026-04-27 19:57 | 37.50078 | -77.33575 | 175 ft | 2 kts | 191° |
| 2026-04-27 19:57 | 37.50094 | -77.33571 | 175 ft | 2 kts | 188° |
| 2026-04-27 19:57 | 37.50110 | -77.33570 | 175 ft | 2 kts | 150° |
| 2026-04-27 19:58 | 37.50119 | -77.33579 | 175 ft | 1 kts | 127° |
| 2026-04-27 19:58 | 37.50119 | -77.33580 | 175 ft | 0 kts | 127° |
| 2026-04-27 20:03 | 37.50111 | -77.33562 | 175 ft | 4 kts | 119° |
| 2026-04-27 20:03 | 37.50105 | -77.33536 | 174 ft | 2 kts | 95° |
| 2026-04-27 20:03 | 37.50109 | -77.33504 | 174 ft | 8 kts | 79° |
| 2026-04-27 20:03 | 37.50125 | -77.33397 | 173 ft | 18 kts | 79° |
| 2026-04-27 20:04 | 37.50134 | -77.33241 | 171 ft | 16 kts | 103° |
| 2026-04-27 20:04 | 37.50111 | -77.33113 | 172 ft | 13 kts | 94° |
| 2026-04-27 20:04 | 37.50130 | -77.33055 | 172 ft | 0 kts | 45° |
| 2026-04-27 20:05 | 37.50134 | -77.33051 | 172 ft | 4 kts | 38° |
| 2026-04-27 20:05 | 37.50187 | -77.33021 | 173 ft | 12 kts | 16° |
| 2026-04-27 20:05 | 37.50264 | -77.32996 | 174 ft | 12 kts | 12° |
| 2026-04-27 20:05 | 37.50328 | -77.32977 | 176 ft | 8 kts | 15° |
| 2026-04-27 20:06 | 37.50401 | -77.32954 | 178 ft | 16 kts | 13° |
| 2026-04-27 20:06 | 37.50538 | -77.32914 | 178 ft | 20 kts | 15° |
| 2026-04-27 20:06 | 37.50660 | -77.32876 | 179 ft | 16 kts | 12° |
| 2026-04-27 20:06 | 37.50753 | -77.32849 | 181 ft | 12 kts | 13° |
| 2026-04-27 20:07 | 37.50850 | -77.32820 | 180 ft | 18 kts | 13° |
| 2026-04-27 20:07 | 37.50981 | -77.32781 | 177 ft | 23 kts | 13° |
| 2026-04-27 20:07 | 37.51151 | -77.32730 | 178 ft | 25 kts | 13° |
| 2026-04-27 20:07 | 37.51317 | -77.32681 | 180 ft | 23 kts | 14° |
| 2026-04-27 20:08 | 37.51456 | -77.32639 | 181 ft | 18 kts | 15° |
| 2026-04-27 20:08 | 37.51578 | -77.32601 | 180 ft | 19 kts | 14° |
| 2026-04-27 20:08 | 37.51632 | -77.32505 | 182 ft | 10 kts | 86° |
| 2026-04-27 20:08 | 37.51633 | -77.32411 | 184 ft | 10 kts | 85° |
| 2026-04-27 20:09 | 37.51636 | -77.32343 | 189 ft | 3 kts | 98° |
| 2026-04-27 20:09 | 37.51609 | -77.32312 | 191 ft | 12 kts | 144° |
| 2026-04-27 20:09 | 37.51378 | -77.32127 | 200 ft | 77 kts | 147° |
| 2026-04-27 20:09 | 37.50712 | -77.31593 | 181 ft | 148 kts | 148° |
| 2026-04-27 20:10 | 37.49668 | -77.30821 | 534 ft | 192 kts | 149° |
| 2026-04-27 20:10 | 37.48429 | -77.29955 | 1606 ft | 213 kts | 152° |
| 2026-04-27 20:10 | 37.47137 | -77.29403 | 2692 ft | 186 kts | 172° |
| 2026-04-27 20:10 | 37.46284 | -77.29499 | 3021 ft | 189 kts | 200° |
| 2026-04-27 20:11 | 37.45382 | -77.30671 | 3813 ft | 199 kts | 256° |
| 2026-04-27 20:11 | 37.45574 | -77.32290 | 5148 ft | 188 kts | 306° |
| 2026-04-27 20:11 | 37.46256 | -77.33634 | 6555 ft | 179 kts | 302° |
| 2026-04-27 20:11 | 37.46666 | -77.35119 | 7683 ft | 188 kts | 284° |
| 2026-04-27 20:12 | 37.46834 | -77.36902 | 8309 ft | 224 kts | 277° |
| 2026-04-27 20:12 | 37.46906 | -77.39023 | 8825 ft | 258 kts | 274° |
| 2026-04-27 20:12 | 37.46949 | -77.41343 | 9732 ft | 269 kts | 274° |
| 2026-04-27 20:12 | 37.46984 | -77.43702 | 10856 ft | 271 kts | 274° |
| 2026-04-27 20:13 | 37.47022 | -77.46095 | 11669 ft | 275 kts | 274° |
| 2026-04-27 20:13 | 37.47065 | -77.48512 | 12304 ft | 278 kts | 274° |
| 2026-04-27 20:13 | 37.47108 | -77.50961 | 13282 ft | 280 kts | 274° |
| 2026-04-27 20:13 | 37.47154 | -77.53421 | 14280 ft | 282 kts | 274° |
| 2026-04-27 20:14 | 37.47160 | -77.55943 | 14908 ft | 297 kts | 270° |
| 2026-04-27 20:14 | 37.47001 | -77.58624 | 15252 ft | 318 kts | 267° |
| 2026-04-27 20:14 | 37.46786 | -77.61479 | 15675 ft | 335 kts | 267° |
| 2026-04-27 20:14 | 37.46573 | -77.64392 | 16350 ft | 342 kts | 266° |
| 2026-04-27 20:15 | 37.45975 | -77.67327 | 17026 ft | 353 kts | 252° |
| 2026-04-27 20:15 | 37.45144 | -77.70325 | 17625 ft | 363 kts | 253° |
| 2026-04-27 20:15 | 37.44301 | -77.73350 | 18311 ft | 369 kts | 253° |
| 2026-04-27 20:15 | 37.43456 | -77.76410 | 18976 ft | 373 kts | 253° |
| 2026-04-27 20:16 | 37.42622 | -77.79468 | 19626 ft | 375 kts | 253° |
| 2026-04-27 20:16 | 37.41778 | -77.82591 | 20275 ft | 378 kts | 254° |
| 2026-04-27 20:16 | 37.40932 | -77.85737 | 20927 ft | 381 kts | 254° |
| 2026-04-27 20:16 | 37.40081 | -77.88910 | 21571 ft | 384 kts | 254° |
| 2026-04-27 20:17 | 37.39223 | -77.92112 | 22211 ft | 387 kts | 254° |
| 2026-04-27 20:17 | 37.38360 | -77.95324 | 22819 ft | 390 kts | 254° |
| 2026-04-27 20:17 | 37.37487 | -77.98575 | 23429 ft | 393 kts | 254° |
| 2026-04-27 20:17 | 37.36608 | -78.01843 | 23974 ft | 396 kts | 254° |
| 2026-04-27 20:18 | 37.35722 | -78.05136 | 24453 ft | 399 kts | 254° |
| 2026-04-27 20:18 | 37.34827 | -78.08463 | 24761 ft | 407 kts | 255° |
| 2026-04-27 20:18 | 37.33911 | -78.11862 | 25071 ft | 413 kts | 254° |
| 2026-04-27 20:18 | 37.32985 | -78.15291 | 25421 ft | 417 kts | 255° |
| 2026-04-27 20:19 | 37.32045 | -78.18765 | 25733 ft | 422 kts | 255° |
| 2026-04-27 20:19 | 37.31096 | -78.22260 | 26298 ft | 420 kts | 255° |
| 2026-04-27 20:19 | 37.30157 | -78.25711 | 26935 ft | 416 kts | 255° |
| 2026-04-27 20:19 | 37.29223 | -78.29145 | 27540 ft | 413 kts | 255° |
| 2026-04-27 20:20 | 37.28274 | -78.32539 | 28118 ft | 411 kts | 255° |
| 2026-04-27 20:20 | 37.27640 | -78.35956 | 28623 ft | 404 kts | 266° |
| 2026-04-27 20:20 | 37.27453 | -78.39498 | 29194 ft | 399 kts | 272° |
| 2026-04-27 20:20 | 37.27444 | -78.42919 | 29714 ft | 396 kts | 274° |
| 2026-04-27 20:21 | 37.27472 | -78.46380 | 30158 ft | 397 kts | 273° |
| 2026-04-27 20:21 | 37.27475 | -78.49850 | 30252 ft | 398 kts | 272° |
| 2026-04-27 20:21 | 37.27347 | -78.56794 | 30268 ft | 402 kts | 271° |
| 2026-04-27 20:22 | 37.27099 | -78.63987 | 30264 ft | 421 kts | 270° |
| 2026-04-27 20:22 | 37.26804 | -78.71483 | 30260 ft | 438 kts | 270° |
| 2026-04-27 20:23 | 37.26493 | -78.79211 | 30254 ft | 446 kts | 270° |
| 2026-04-27 20:23 | 37.26180 | -78.86980 | 30259 ft | 446 kts | 270° |
| 2026-04-27 20:24 | 37.25865 | -78.94755 | 30252 ft | 446 kts | 270° |
| 2026-04-27 20:24 | 37.25549 | -79.02530 | 30255 ft | 446 kts | 269° |
| 2026-04-27 20:25 | 37.25226 | -79.10318 | 30257 ft | 447 kts | 269° |
| 2026-04-27 20:25 | 37.24897 | -79.18111 | 30254 ft | 447 kts | 269° |
| 2026-04-27 20:26 | 37.24475 | -79.25859 | 30258 ft | 449 kts | 266° |
| 2026-04-27 20:26 | 37.23702 | -79.33646 | 30255 ft | 450 kts | 265° |
| 2026-04-27 20:27 | 37.22846 | -79.41435 | 30253 ft | 451 kts | 265° |
| 2026-04-27 20:27 | 37.22013 | -79.49234 | 30247 ft | 451 kts | 265° |
| 2026-04-27 20:28 | 37.21199 | -79.57043 | 30244 ft | 451 kts | 265° |
| 2026-04-27 20:28 | 37.20524 | -79.63535 | 30245 ft | 451 kts | 265° |
| 2026-04-27 20:29 | 37.19567 | -79.72672 | 30250 ft | 452 kts | 265° |
| 2026-04-27 20:29 | 37.18745 | -79.80478 | 30249 ft | 452 kts | 265° |
| 2026-04-27 20:30 | 37.17917 | -79.88298 | 30251 ft | 452 kts | 265° |
| 2026-04-27 20:30 | 37.17086 | -79.96069 | 30252 ft | 452 kts | 265° |
| 2026-04-27 20:31 | 37.16244 | -80.03880 | 30252 ft | 452 kts | 265° |
| 2026-04-27 20:31 | 37.15397 | -80.11693 | 30253 ft | 452 kts | 265° |
| 2026-04-27 20:32 | 37.14548 | -80.19496 | 30251 ft | 452 kts | 264° |
| 2026-04-27 20:32 | 37.13692 | -80.27302 | 30256 ft | 452 kts | 264° |
| 2026-04-27 20:33 | 37.12832 | -80.35107 | 30250 ft | 452 kts | 264° |
| 2026-04-27 20:33 | 37.11973 | -80.42858 | 30256 ft | 452 kts | 264° |
| 2026-04-27 20:34 | 37.11102 | -80.50652 | 30260 ft | 452 kts | 264° |
| 2026-04-27 20:34 | 37.10226 | -80.58455 | 30197 ft | 452 kts | 264° |
| 2026-04-27 20:35 | 37.09345 | -80.66259 | 30210 ft | 452 kts | 264° |
| 2026-04-27 20:35 | 37.08697 | -80.74088 | 30209 ft | 451 kts | 270° |
| 2026-04-27 20:36 | 37.08758 | -80.81934 | 30196 ft | 450 kts | 274° |
| 2026-04-27 20:36 | 37.08978 | -80.89769 | 30193 ft | 451 kts | 273° |
| 2026-04-27 20:37 | 37.09142 | -80.97629 | 30193 ft | 451 kts | 272° |
| 2026-04-27 20:37 | 37.09253 | -81.05479 | 30183 ft | 451 kts | 272° |
| 2026-04-27 20:38 | 37.09344 | -81.13338 | 30192 ft | 452 kts | 272° |
| 2026-04-27 20:38 | 37.09431 | -81.21154 | 30193 ft | 452 kts | 272° |
| 2026-04-27 20:39 | 37.09514 | -81.29029 | 30186 ft | 452 kts | 272° |
| 2026-04-27 20:39 | 37.09592 | -81.36904 | 30194 ft | 452 kts | 272° |
| 2026-04-27 20:40 | 37.09667 | -81.44774 | 30181 ft | 452 kts | 272° |
| 2026-04-27 20:40 | 37.09737 | -81.52656 | 30149 ft | 452 kts | 272° |
| 2026-04-27 20:41 | 37.09799 | -81.60526 | 30150 ft | 452 kts | 271° |
| 2026-04-27 20:41 | 37.09857 | -81.68406 | 30162 ft | 452 kts | 271° |
| 2026-04-27 20:42 | 37.09911 | -81.76285 | 30164 ft | 452 kts | 271° |
| 2026-04-27 20:42 | 37.09959 | -81.84116 | 30160 ft | 452 kts | 271° |
| 2026-04-27 20:43 | 37.09999 | -81.92004 | 30161 ft | 452 kts | 271° |
| 2026-04-27 20:43 | 37.10040 | -81.99883 | 30145 ft | 453 kts | 271° |
| 2026-04-27 20:44 | 37.10075 | -82.07770 | 30120 ft | 453 kts | 271° |
| 2026-04-27 20:44 | 37.10102 | -82.15666 | 30095 ft | 453 kts | 271° |
| 2026-04-27 20:45 | 37.10121 | -82.23570 | 30098 ft | 453 kts | 271° |
| 2026-04-27 20:45 | 37.10135 | -82.31466 | 30112 ft | 453 kts | 271° |
| 2026-04-27 20:46 | 37.10147 | -82.39359 | 30125 ft | 453 kts | 271° |
| 2026-04-27 20:46 | 37.10155 | -82.47262 | 30139 ft | 453 kts | 271° |
| 2026-04-27 20:47 | 37.10158 | -82.55093 | 30138 ft | 453 kts | 271° |
| 2026-04-27 20:47 | 37.10154 | -82.62980 | 30130 ft | 452 kts | 270° |
| 2026-04-27 20:48 | 37.10145 | -82.69576 | 30121 ft | 452 kts | 270° |
| 2026-04-27 20:48 | 37.10128 | -82.78722 | 30105 ft | 451 kts | 270° |
| 2026-04-27 20:49 | 37.10107 | -82.86574 | 30087 ft | 451 kts | 270° |
| 2026-04-27 20:49 | 37.10083 | -82.94424 | 30064 ft | 450 kts | 270° |
| 2026-04-27 20:50 | 37.10052 | -83.02275 | 30060 ft | 450 kts | 270° |
| 2026-04-27 20:50 | 37.10016 | -83.10127 | 30064 ft | 450 kts | 270° |
| 2026-04-27 20:51 | 37.09975 | -83.17972 | 30061 ft | 450 kts | 270° |
| 2026-04-27 20:51 | 37.09931 | -83.25814 | 30061 ft | 450 kts | 270° |
| 2026-04-27 20:52 | 37.09881 | -83.33662 | 30067 ft | 450 kts | 270° |
| 2026-04-27 20:52 | 37.09825 | -83.41509 | 30061 ft | 451 kts | 270° |
| 2026-04-27 20:53 | 37.09762 | -83.49366 | 30050 ft | 451 kts | 270° |
| 2026-04-27 20:53 | 37.09696 | -83.57238 | 30049 ft | 452 kts | 269° |
| 2026-04-27 20:54 | 37.09583 | -83.69057 | 30054 ft | 453 kts | 269° |
| 2026-04-27 20:55 | 37.09506 | -83.76904 | 30061 ft | 453 kts | 269° |
| 2026-04-27 20:55 | 37.09422 | -83.84804 | 30071 ft | 453 kts | 269° |
| 2026-04-27 20:56 | 37.09332 | -83.92700 | 30074 ft | 453 kts | 269° |
| 2026-04-27 20:56 | 37.09237 | -84.00592 | 30085 ft | 453 kts | 269° |
| 2026-04-27 20:57 | 37.09137 | -84.08481 | 30081 ft | 453 kts | 269° |
| 2026-04-27 20:57 | 37.09049 | -84.15037 | 30078 ft | 453 kts | 269° |
| 2026-04-27 20:58 | 37.10141 | -84.22729 | 30075 ft | 456 kts | 295° |
| 2026-04-27 20:58 | 37.11926 | -84.26013 | 30076 ft | 460 kts | 310° |
| 2026-04-27 20:58 | 37.14347 | -84.28648 | 30078 ft | 463 kts | 319° |
| 2026-04-27 20:59 | 37.19253 | -84.33841 | 30055 ft | 460 kts | 314° |
| 2026-04-27 20:59 | 37.23751 | -84.39543 | 30022 ft | 459 kts | 310° |
| 2026-04-27 21:00 | 37.28068 | -84.45430 | 30019 ft | 458 kts | 309° |
| 2026-04-27 21:00 | 37.32324 | -84.51375 | 30012 ft | 458 kts | 309° |
| 2026-04-27 21:01 | 37.36563 | -84.57342 | 30018 ft | 457 kts | 309° |
| 2026-04-27 21:01 | 37.40789 | -84.63314 | 30025 ft | 456 kts | 309° |
| 2026-04-27 21:02 | 37.44987 | -84.69259 | 30019 ft | 456 kts | 309° |
| 2026-04-27 21:02 | 37.49232 | -84.75284 | 30013 ft | 452 kts | 309° |
| 2026-04-27 21:03 | 37.53330 | -84.81109 | 29532 ft | 439 kts | 309° |
| 2026-04-27 21:03 | 37.55327 | -84.83955 | 28855 ft | 439 kts | 309° |
| 2026-04-27 21:03 | 37.57379 | -84.86881 | 28115 ft | 440 kts | 309° |
| 2026-04-27 21:03 | 37.59406 | -84.89774 | 27404 ft | 441 kts | 309° |
| 2026-04-27 21:04 | 37.61434 | -84.92670 | 26659 ft | 441 kts | 309° |
| 2026-04-27 21:04 | 37.63466 | -84.95575 | 25856 ft | 442 kts | 308° |
| 2026-04-27 21:04 | 37.65503 | -84.98489 | 25031 ft | 443 kts | 308° |
| 2026-04-27 21:04 | 37.67513 | -85.01366 | 24212 ft | 441 kts | 308° |
| 2026-04-27 21:05 | 37.69537 | -85.04264 | 23378 ft | 438 kts | 308° |
| 2026-04-27 21:05 | 37.71544 | -85.07141 | 22453 ft | 434 kts | 308° |
| 2026-04-27 21:05 | 37.73527 | -85.09987 | 21628 ft | 429 kts | 308° |
| 2026-04-27 21:05 | 37.75471 | -85.12777 | 20716 ft | 415 kts | 308° |
| 2026-04-27 21:06 | 37.77350 | -85.15475 | 19762 ft | 406 kts | 308° |
| 2026-04-27 21:06 | 37.79201 | -85.18140 | 18816 ft | 400 kts | 308° |
| 2026-04-27 21:06 | 37.81028 | -85.20771 | 17839 ft | 394 kts | 308° |
| 2026-04-27 21:06 | 37.82823 | -85.23362 | 16808 ft | 389 kts | 308° |
| 2026-04-27 21:07 | 37.84600 | -85.25930 | 15798 ft | 386 kts | 308° |
| 2026-04-27 21:07 | 37.86363 | -85.28477 | 14873 ft | 384 kts | 308° |
| 2026-04-27 21:07 | 37.88126 | -85.31025 | 14159 ft | 386 kts | 308° |
| 2026-04-27 21:07 | 37.89889 | -85.33580 | 13426 ft | 385 kts | 308° |
| 2026-04-27 21:08 | 37.91649 | -85.36127 | 12676 ft | 384 kts | 308° |
| 2026-04-27 21:08 | 37.93405 | -85.38668 | 11925 ft | 383 kts | 307° |
| 2026-04-27 21:08 | 37.95155 | -85.41202 | 11197 ft | 381 kts | 307° |
| 2026-04-27 21:08 | 37.96896 | -85.43725 | 10485 ft | 378 kts | 307° |
| 2026-04-27 21:09 | 37.98587 | -85.46168 | 9749 ft | 359 kts | 306° |
| 2026-04-27 21:09 | 38.00199 | -85.48499 | 8972 ft | 343 kts | 306° |
| 2026-04-27 21:09 | 38.01734 | -85.50733 | 8332 ft | 328 kts | 305° |
| 2026-04-27 21:09 | 38.03190 | -85.52849 | 7936 ft | 308 kts | 305° |
| 2026-04-27 21:10 | 38.04557 | -85.54840 | 7568 ft | 292 kts | 304° |
| 2026-04-27 21:10 | 38.05887 | -85.56784 | 7235 ft | 291 kts | 304° |
| 2026-04-27 21:10 | 38.07208 | -85.58719 | 6900 ft | 289 kts | 305° |
| 2026-04-27 21:10 | 38.08522 | -85.60638 | 6553 ft | 287 kts | 305° |
| 2026-04-27 21:11 | 38.09829 | -85.62551 | 6219 ft | 287 kts | 305° |
| 2026-04-27 21:11 | 38.11117 | -85.64433 | 5879 ft | 286 kts | 304° |
| 2026-04-27 21:11 | 38.12436 | -85.66360 | 5522 ft | 284 kts | 304° |
| 2026-04-27 21:11 | 38.13714 | -85.68228 | 5171 ft | 283 kts | 304° |
| 2026-04-27 21:12 | 38.14999 | -85.70108 | 4842 ft | 281 kts | 304° |
| 2026-04-27 21:12 | 38.16276 | -85.71980 | 4497 ft | 280 kts | 304° |
| 2026-04-27 21:12 | 38.17549 | -85.73849 | 4150 ft | 279 kts | 305° |
| 2026-04-27 21:12 | 38.18798 | -85.75682 | 4007 ft | 268 kts | 305° |
| 2026-04-27 21:13 | 38.19983 | -85.77404 | 4002 ft | 249 kts | 305° |
| 2026-04-27 21:13 | 38.21113 | -85.79024 | 3994 ft | 243 kts | 305° |
| 2026-04-27 21:13 | 38.22234 | -85.80628 | 3995 ft | 242 kts | 305° |
| 2026-04-27 21:13 | 38.23351 | -85.82226 | 3908 ft | 242 kts | 306° |
| 2026-04-27 21:14 | 38.24695 | -85.83542 | 3661 ft | 249 kts | 329° |
| 2026-04-27 21:14 | 38.26345 | -85.84254 | 3442 ft | 252 kts | 343° |
| 2026-04-27 21:14 | 38.28046 | -85.84772 | 3190 ft | 251 kts | 345° |
| 2026-04-27 21:14 | 38.29741 | -85.85293 | 3012 ft | 250 kts | 345° |
| 2026-04-27 21:15 | 38.31463 | -85.85446 | 2980 ft | 250 kts | 11° |
| 2026-04-27 21:15 | 38.33011 | -85.84562 | 3002 ft | 241 kts | 44° |
| 2026-04-27 21:15 | 38.33946 | -85.82899 | 2986 ft | 227 kts | 77° |
| 2026-04-27 21:15 | 38.34008 | -85.81025 | 2941 ft | 201 kts | 117° |
| 2026-04-27 21:16 | 38.33109 | -85.79840 | 2661 ft | 188 kts | 157° |
| 2026-04-27 21:16 | 38.31879 | -85.79339 | 2572 ft | 180 kts | 166° |
| 2026-04-27 21:16 | 38.30711 | -85.78936 | 2522 ft | 167 kts | 171° |
| 2026-04-27 21:16 | 38.29614 | -85.79147 | 2355 ft | 165 kts | 207° |
| 2026-04-27 21:17 | 38.28892 | -85.80290 | 2192 ft | 170 kts | 244° |
| 2026-04-27 21:17 | 38.28889 | -85.81777 | 2108 ft | 173 kts | 282° |
| 2026-04-27 21:17 | 38.29616 | -85.82950 | 2275 ft | 175 kts | 322° |
| 2026-04-27 21:17 | 38.30838 | -85.83172 | 2428 ft | 186 kts | 20° |
| 2026-04-27 21:18 | 38.31828 | -85.82283 | 2586 ft | 174 kts | 63° |
| 2026-04-27 21:18 | 38.32080 | -85.80906 | 2658 ft | 154 kts | 109° |
| 2026-04-27 21:18 | 38.31571 | -85.79777 | 2618 ft | 147 kts | 141° |
| 2026-04-27 21:18 | 38.30808 | -85.79012 | 2444 ft | 130 kts | 152° |
| 2026-04-27 21:19 | 38.29990 | -85.78553 | 2528 ft | 129 kts | 165° |
| 2026-04-27 21:19 | 38.29113 | -85.78298 | 2592 ft | 128 kts | 168° |
| 2026-04-27 21:19 | 38.28244 | -85.78027 | 2461 ft | 129 kts | 168° |
| 2026-04-27 21:20 | 38.26519 | -85.77428 | 2081 ft | 128 kts | 169° |
| 2026-04-27 21:20 | 38.25644 | -85.77162 | 2048 ft | 129 kts | 167° |
| 2026-04-27 21:20 | 38.24782 | -85.76890 | 1881 ft | 126 kts | 168° |
| 2026-04-27 21:20 | 38.23932 | -85.76607 | 1694 ft | 127 kts | 166° |
| 2026-04-27 21:21 | 38.23071 | -85.76329 | 1427 ft | 126 kts | 167° |
| 2026-04-27 21:21 | 38.22229 | -85.76054 | 1228 ft | 126 kts | 165° |
| 2026-04-27 21:21 | 38.21382 | -85.75769 | 1030 ft | 127 kts | 164° |
| 2026-04-27 21:21 | 38.20512 | -85.75475 | 872 ft | 131 kts | 166° |
| 2026-04-27 21:22 | 38.19604 | -85.75180 | 737 ft | 139 kts | 163° |
| 2026-04-27 21:22 | 38.18681 | -85.74868 | 537 ft | 133 kts | 165° |
| 2026-04-27 21:22 | 38.17804 | -85.74580 | 500 ft | 127 kts | 165° |
| 2026-04-27 21:22 | 38.17050 | -85.74333 | 479 ft | 95 kts | 165° |
| 2026-04-27 21:23 | 38.16528 | -85.74153 | 481 ft | 53 kts | 161° |
| 2026-04-27 21:23 | 38.16345 | -85.74065 | 478 ft | 15 kts | 118° |
| 2026-04-27 21:23 | 38.16357 | -85.73963 | 474 ft | 10 kts | 40° |
| 2026-04-27 21:23 | 38.16450 | -85.73977 | 475 ft | 19 kts | 344° |
| 2026-04-27 21:24 | 38.16597 | -85.74027 | 478 ft | 21 kts | 345° |
| 2026-04-27 21:24 | 38.16732 | -85.74069 | 480 ft | 19 kts | 349° |
| 2026-04-27 21:24 | 38.16832 | -85.74089 | 479 ft | 9 kts | 14° |
| 2026-04-27 21:24 | 38.16858 | -85.74038 | 478 ft | 6 kts | 83° |
| 2026-04-27 21:25 | 38.16845 | -85.73943 | 484 ft | 13 kts | 107° |
| 2026-04-27 21:25 | 38.16814 | -85.73837 | 483 ft | 12 kts | 112° |
| 2026-04-27 21:25 | 38.16764 | -85.73824 | 480 ft | 8 kts | 199° |